sensor_id;sensor_type;location;lat;lon;timestamp;P1;durP1;ratioP1;P2;durP2;ratioP2
51216;SDS011;37283;49.760;8.648;2022-07-23T00:00:18;6.57;;;5.07;;
51216;SDS011;37283;49.760;8.648;2022-07-23T00:02:45;7.80;;;5.40;;
51216;SDS011;37283;49.760;8.648;2022-07-23T00:05:12;6.30;;;4.80;;
51216;SDS011;37283;49.760;8.648;2022-07-23T00:07:39;7.35;;;4.88;;
51216;SDS011;37283;49.760;8.648;2022-07-23T00:10:06;7.68;;;4.75;;
51216;SDS011;37283;49.760;8.648;2022-07-23T00:12:33;7.57;;;5.00;;
51216;SDS011;37283;49.760;8.648;2022-07-23T00:14:59;7.35;;;5.15;;
51216;SDS011;37283;49.760;8.648;2022-07-23T00:17:26;5.55;;;4.90;;
51216;SDS011;37283;49.760;8.648;2022-07-23T00:19:53;7.03;;;5.07;;
51216;SDS011;37283;49.760;8.648;2022-07-23T00:22:20;6.97;;;4.93;;
51216;SDS011;37283;49.760;8.648;2022-07-23T00:24:47;8.40;;;5.05;;
51216;SDS011;37283;49.760;8.648;2022-07-23T00:27:33;7.80;;;5.20;;
51216;SDS011;37283;49.760;8.648;2022-07-23T00:30:00;6.45;;;5.72;;
51216;SDS011;37283;49.760;8.648;2022-07-23T00:32:27;7.60;;;5.25;;
51216;SDS011;37283;49.760;8.648;2022-07-23T00:35:13;5.88;;;5.28;;
51216;SDS011;37283;49.760;8.648;2022-07-23T00:37:40;8.27;;;6.00;;
51216;SDS011;37283;49.760;8.648;2022-07-23T00:40:08;7.15;;;5.85;;
51216;SDS011;37283;49.760;8.648;2022-07-23T00:42:35;8.40;;;5.75;;
51216;SDS011;37283;49.760;8.648;2022-07-23T00:45:10;6.60;;;5.35;;
51216;SDS011;37283;49.760;8.648;2022-07-23T00:47:57;8.05;;;5.70;;
51216;SDS011;37283;49.760;8.648;2022-07-23T00:50:24;6.68;;;5.55;;
51216;SDS011;37283;49.760;8.648;2022-07-23T00:52:52;6.00;;;4.97;;
51216;SDS011;37283;49.760;8.648;2022-07-23T00:55:19;11.65;;;5.50;;
51216;SDS011;37283;49.760;8.648;2022-07-23T00:57:47;6.90;;;5.00;;
51216;SDS011;37283;49.760;8.648;2022-07-23T01:03:10;9.07;;;5.60;;
51216;SDS011;37283;49.760;8.648;2022-07-23T01:05:38;8.88;;;5.90;;
51216;SDS011;37283;49.760;8.648;2022-07-23T01:08:11;7.28;;;5.45;;
51216;SDS011;37283;49.760;8.648;2022-07-23T01:18:45;7.20;;;5.32;;
51216;SDS011;37283;49.760;8.648;2022-07-23T01:22:43;7.82;;;5.50;;
51216;SDS011;37283;49.760;8.648;2022-07-23T01:28:43;6.40;;;4.95;;
51216;SDS011;37283;49.760;8.648;2022-07-23T01:31:16;6.88;;;5.10;;
51216;SDS011;37283;49.760;8.648;2022-07-23T01:33:44;8.68;;;5.30;;
51216;SDS011;37283;49.760;8.648;2022-07-23T01:36:11;7.15;;;4.85;;
51216;SDS011;37283;49.760;8.648;2022-07-23T01:38:41;9.02;;;5.65;;
51216;SDS011;37283;49.760;8.648;2022-07-23T01:47:01;6.45;;;5.30;;
51216;SDS011;37283;49.760;8.648;2022-07-23T01:54:04;6.78;;;5.55;;
51216;SDS011;37283;49.760;8.648;2022-07-23T02:09:46;5.70;;;5.15;;
51216;SDS011;37283;49.760;8.648;2022-07-23T02:12:13;6.10;;;5.45;;
51216;SDS011;37283;49.760;8.648;2022-07-23T02:14:39;6.75;;;5.50;;
51216;SDS011;37283;49.760;8.648;2022-07-23T02:17:07;7.13;;;6.03;;
51216;SDS011;37283;49.760;8.648;2022-07-23T02:19:34;6.18;;;5.25;;
51216;SDS011;37283;49.760;8.648;2022-07-23T02:22:00;9.52;;;5.35;;
51216;SDS011;37283;49.760;8.648;2022-07-23T02:24:27;6.93;;;5.38;;
51216;SDS011;37283;49.760;8.648;2022-07-23T02:26:54;6.50;;;5.78;;
51216;SDS011;37283;49.760;8.648;2022-07-23T02:29:21;7.70;;;5.60;;
51216;SDS011;37283;49.760;8.648;2022-07-23T02:31:48;6.20;;;5.25;;
51216;SDS011;37283;49.760;8.648;2022-07-23T02:34:14;6.05;;;5.30;;
51216;SDS011;37283;49.760;8.648;2022-07-23T02:36:41;6.63;;;5.38;;
51216;SDS011;37283;49.760;8.648;2022-07-23T02:39:08;7.43;;;5.40;;
51216;SDS011;37283;49.760;8.648;2022-07-23T02:41:36;5.78;;;5.28;;
51216;SDS011;37283;49.760;8.648;2022-07-23T02:44:03;7.15;;;5.22;;
51216;SDS011;37283;49.760;8.648;2022-07-23T02:46:31;10.35;;;6.28;;
51216;SDS011;37283;49.760;8.648;2022-07-23T02:49:01;8.65;;;5.40;;
51216;SDS011;37283;49.760;8.648;2022-07-23T06:04:19;7.68;;;6.22;;
51216;SDS011;37283;49.760;8.648;2022-07-23T06:07:01;8.93;;;6.45;;
51216;SDS011;37283;49.760;8.648;2022-07-23T06:09:28;7.20;;;6.50;;
51216;SDS011;37283;49.760;8.648;2022-07-23T06:11:55;6.90;;;6.20;;
51216;SDS011;37283;49.760;8.648;2022-07-23T06:14:21;8.25;;;6.03;;
51216;SDS011;37283;49.760;8.648;2022-07-23T06:16:52;9.30;;;6.57;;
51216;SDS011;37283;49.760;8.648;2022-07-23T06:19:20;7.72;;;6.30;;
51216;SDS011;37283;49.760;8.648;2022-07-23T06:21:47;7.57;;;5.93;;
51216;SDS011;37283;49.760;8.648;2022-07-23T06:24:15;9.15;;;6.38;;
51216;SDS011;37283;49.760;8.648;2022-07-23T06:26:42;10.25;;;6.40;;
51216;SDS011;37283;49.760;8.648;2022-07-23T06:29:08;7.80;;;6.18;;
51216;SDS011;37283;49.760;8.648;2022-07-23T06:31:35;7.50;;;6.00;;
51216;SDS011;37283;49.760;8.648;2022-07-23T06:34:02;8.70;;;6.13;;
51216;SDS011;37283;49.760;8.648;2022-07-23T06:36:28;8.98;;;6.32;;
51216;SDS011;37283;49.760;8.648;2022-07-23T06:38:55;9.13;;;6.45;;
51216;SDS011;37283;49.760;8.648;2022-07-23T06:41:22;7.53;;;6.50;;
51216;SDS011;37283;49.760;8.648;2022-07-23T06:43:51;6.40;;;5.68;;
51216;SDS011;37283;49.760;8.648;2022-07-23T06:46:20;6.88;;;6.18;;
51216;SDS011;37283;49.760;8.648;2022-07-23T06:48:48;7.57;;;6.80;;
51216;SDS011;37283;49.760;8.648;2022-07-23T06:51:15;9.05;;;6.60;;
51216;SDS011;37283;49.760;8.648;2022-07-23T06:53:41;9.52;;;7.00;;
51216;SDS011;37283;49.760;8.648;2022-07-23T06:56:08;7.68;;;6.45;;
51216;SDS011;37283;49.760;8.648;2022-07-23T06:58:35;7.10;;;6.32;;
51216;SDS011;37283;49.760;8.648;2022-07-23T07:01:01;7.63;;;6.85;;
51216;SDS011;37283;49.760;8.648;2022-07-23T07:03:28;9.80;;;6.55;;
51216;SDS011;37283;49.760;8.648;2022-07-23T07:05:54;9.07;;;7.35;;
51216;SDS011;37283;49.760;8.648;2022-07-23T07:08:23;8.18;;;6.82;;
51216;SDS011;37283;49.760;8.648;2022-07-23T07:10:50;8.85;;;7.10;;
51216;SDS011;37283;49.760;8.648;2022-07-23T07:13:16;8.43;;;7.55;;
51216;SDS011;37283;49.760;8.648;2022-07-23T07:15:43;8.00;;;6.78;;
51216;SDS011;37283;49.760;8.648;2022-07-23T07:18:10;9.98;;;7.95;;
51216;SDS011;37283;49.760;8.648;2022-07-23T07:20:36;8.52;;;6.82;;
51216;SDS011;37283;49.760;8.648;2022-07-23T07:23:03;9.38;;;6.80;;
51216;SDS011;37283;49.760;8.648;2022-07-23T07:25:29;7.40;;;6.70;;
51216;SDS011;37283;49.760;8.648;2022-07-23T07:27:56;7.30;;;6.53;;
51216;SDS011;37283;49.760;8.648;2022-07-23T07:30:22;7.70;;;6.60;;
51216;SDS011;37283;49.760;8.648;2022-07-23T07:32:49;10.95;;;7.63;;
51216;SDS011;37283;49.760;8.648;2022-07-23T07:35:23;9.25;;;7.90;;
51216;SDS011;37283;49.760;8.648;2022-07-23T07:37:50;7.88;;;6.85;;
51216;SDS011;37283;49.760;8.648;2022-07-23T07:40:17;8.30;;;7.40;;
51216;SDS011;37283;49.760;8.648;2022-07-23T07:42:44;7.90;;;7.10;;
51216;SDS011;37283;49.760;8.648;2022-07-23T07:45:11;6.85;;;6.18;;
51216;SDS011;37283;49.760;8.648;2022-07-23T07:47:37;7.65;;;6.88;;
51216;SDS011;37283;49.760;8.648;2022-07-23T07:50:04;7.18;;;6.47;;
51216;SDS011;37283;49.760;8.648;2022-07-23T07:52:32;9.32;;;7.30;;
51216;SDS011;37283;49.760;8.648;2022-07-23T07:54:58;6.82;;;5.65;;
51216;SDS011;37283;49.760;8.648;2022-07-23T07:57:25;7.03;;;6.40;;
51216;SDS011;37283;49.760;8.648;2022-07-23T07:59:51;6.82;;;6.13;;
51216;SDS011;37283;49.760;8.648;2022-07-23T08:02:21;7.88;;;6.88;;
51216;SDS011;37283;49.760;8.648;2022-07-23T08:04:48;7.85;;;6.72;;
51216;SDS011;37283;49.760;8.648;2022-07-23T08:07:15;8.15;;;6.72;;
51216;SDS011;37283;49.760;8.648;2022-07-23T08:09:42;9.63;;;6.57;;
51216;SDS011;37283;49.760;8.648;2022-07-23T08:12:08;8.38;;;6.55;;
51216;SDS011;37283;49.760;8.648;2022-07-23T08:14:35;7.50;;;6.70;;
51216;SDS011;37283;49.760;8.648;2022-07-23T08:17:01;7.85;;;6.43;;
51216;SDS011;37283;49.760;8.648;2022-07-23T08:19:40;6.72;;;5.90;;
51216;SDS011;37283;49.760;8.648;2022-07-23T08:22:06;7.38;;;6.55;;
51216;SDS011;37283;49.760;8.648;2022-07-23T08:24:33;7.75;;;6.53;;
51216;SDS011;37283;49.760;8.648;2022-07-23T08:26:59;8.85;;;6.22;;
51216;SDS011;37283;49.760;8.648;2022-07-23T08:29:26;7.72;;;6.90;;
51216;SDS011;37283;49.760;8.648;2022-07-23T08:31:52;8.55;;;6.38;;
51216;SDS011;37283;49.760;8.648;2022-07-23T08:34:19;8.52;;;6.22;;
51216;SDS011;37283;49.760;8.648;2022-07-23T08:36:45;6.63;;;5.93;;
51216;SDS011;37283;49.760;8.648;2022-07-23T08:39:12;8.27;;;6.43;;
51216;SDS011;37283;49.760;8.648;2022-07-23T08:41:39;7.40;;;6.57;;
51216;SDS011;37283;49.760;8.648;2022-07-23T08:44:07;9.27;;;6.85;;
51216;SDS011;37283;49.760;8.648;2022-07-23T08:46:34;10.23;;;6.47;;
51216;SDS011;37283;49.760;8.648;2022-07-23T08:49:08;6.60;;;6.00;;
51216;SDS011;37283;49.760;8.648;2022-07-23T08:51:35;7.60;;;6.88;;
51216;SDS011;37283;49.760;8.648;2022-07-23T08:54:01;6.90;;;6.18;;
51216;SDS011;37283;49.760;8.648;2022-07-23T08:56:29;5.93;;;5.32;;
51216;SDS011;37283;49.760;8.648;2022-07-23T08:58:55;8.75;;;6.00;;
51216;SDS011;37283;49.760;8.648;2022-07-23T09:01:22;6.32;;;5.07;;
51216;SDS011;37283;49.760;8.648;2022-07-23T09:03:48;7.93;;;6.20;;
51216;SDS011;37283;49.760;8.648;2022-07-23T09:06:15;7.25;;;6.13;;
51216;SDS011;37283;49.760;8.648;2022-07-23T09:08:42;7.47;;;5.30;;
51216;SDS011;37283;49.760;8.648;2022-07-23T09:11:10;7.32;;;6.50;;
51216;SDS011;37283;49.760;8.648;2022-07-23T09:23:53;7.65;;;6.63;;
51216;SDS011;37283;49.760;8.648;2022-07-23T09:26:31;7.38;;;6.38;;
51216;SDS011;37283;49.760;8.648;2022-07-23T09:29:18;7.28;;;6.40;;
51216;SDS011;37283;49.760;8.648;2022-07-23T09:31:52;6.65;;;6.05;;
51216;SDS011;37283;49.760;8.648;2022-07-23T09:34:21;7.23;;;6.53;;
51216;SDS011;37283;49.760;8.648;2022-07-23T09:36:50;7.68;;;6.25;;
51216;SDS011;37283;49.760;8.648;2022-07-23T09:39:24;6.80;;;6.05;;
51216;SDS011;37283;49.760;8.648;2022-07-23T09:41:58;8.93;;;5.85;;
51216;SDS011;37283;49.760;8.648;2022-07-23T09:44:58;6.80;;;6.10;;
51216;SDS011;37283;49.760;8.648;2022-07-23T09:47:29;6.38;;;5.78;;
51216;SDS011;37283;49.760;8.648;2022-07-23T09:49:58;9.65;;;5.90;;
51216;SDS011;37283;49.760;8.648;2022-07-23T09:52:31;8.40;;;6.43;;
51216;SDS011;37283;49.760;8.648;2022-07-23T09:55:04;6.40;;;5.60;;
51216;SDS011;37283;49.760;8.648;2022-07-23T09:57:32;6.60;;;5.70;;
51216;SDS011;37283;49.760;8.648;2022-07-23T10:00:06;8.48;;;6.47;;
51216;SDS011;37283;49.760;8.648;2022-07-23T10:02:35;7.88;;;6.30;;
51216;SDS011;37283;49.760;8.648;2022-07-23T10:05:20;8.55;;;6.60;;
51216;SDS011;37283;49.760;8.648;2022-07-23T10:08:07;7.35;;;5.78;;
51216;SDS011;37283;49.760;8.648;2022-07-23T10:10:56;9.18;;;6.18;;
51216;SDS011;37283;49.760;8.648;2022-07-23T10:13:46;6.90;;;5.90;;
51216;SDS011;37283;49.760;8.648;2022-07-23T10:16:30;7.13;;;6.18;;
51216;SDS011;37283;49.760;8.648;2022-07-23T10:18:57;8.55;;;5.40;;
51216;SDS011;37283;49.760;8.648;2022-07-23T10:21:25;6.13;;;5.63;;
51216;SDS011;37283;49.760;8.648;2022-07-23T10:24:10;6.05;;;5.45;;
51216;SDS011;37283;49.760;8.648;2022-07-23T10:26:46;8.65;;;6.15;;
51216;SDS011;37283;49.760;8.648;2022-07-23T10:31:58;6.78;;;6.07;;
51216;SDS011;37283;49.760;8.648;2022-07-23T10:34:33;7.25;;;6.55;;
51216;SDS011;37283;49.760;8.648;2022-07-23T10:37:12;6.63;;;5.80;;
51216;SDS011;37283;49.760;8.648;2022-07-23T10:39:47;9.20;;;6.80;;
51216;SDS011;37283;49.760;8.648;2022-07-23T10:42:14;7.57;;;5.93;;
51216;SDS011;37283;49.760;8.648;2022-07-23T10:44:43;6.78;;;6.07;;
51216;SDS011;37283;49.760;8.648;2022-07-23T10:47:12;7.65;;;6.15;;
51216;SDS011;37283;49.760;8.648;2022-07-23T10:50:16;6.75;;;6.05;;
51216;SDS011;37283;49.760;8.648;2022-07-23T10:58:03;7.97;;;6.28;;
51216;SDS011;37283;49.760;8.648;2022-07-23T11:00:31;8.48;;;5.78;;
51216;SDS011;37283;49.760;8.648;2022-07-23T11:02:59;6.03;;;5.50;;
51216;SDS011;37283;49.760;8.648;2022-07-23T11:05:42;6.50;;;5.90;;
51216;SDS011;37283;49.760;8.648;2022-07-23T11:08:11;7.57;;;5.78;;
51216;SDS011;37283;49.760;8.648;2022-07-23T11:37:03;9.13;;;6.00;;
51216;SDS011;37283;49.760;8.648;2022-07-23T11:41:58;8.93;;;5.70;;
51216;SDS011;37283;49.760;8.648;2022-07-23T11:44:32;7.15;;;5.80;;
51216;SDS011;37283;49.760;8.648;2022-07-23T11:47:01;6.55;;;5.43;;
51216;SDS011;37283;49.760;8.648;2022-07-23T11:49:30;6.32;;;5.53;;
51216;SDS011;37283;49.760;8.648;2022-07-23T11:52:07;5.75;;;5.25;;
51216;SDS011;37283;49.760;8.648;2022-07-23T11:54:48;6.72;;;5.10;;
51216;SDS011;37283;49.760;8.648;2022-07-23T11:57:25;6.28;;;5.47;;
51216;SDS011;37283;49.760;8.648;2022-07-23T12:02:37;6.47;;;5.35;;
51216;SDS011;37283;49.760;8.648;2022-07-23T12:05:11;7.30;;;5.30;;
51216;SDS011;37283;49.760;8.648;2022-07-23T12:07:40;5.43;;;4.93;;
51216;SDS011;37283;49.760;8.648;2022-07-23T12:12:56;7.40;;;5.28;;
51216;SDS011;37283;49.760;8.648;2022-07-23T12:15:25;6.15;;;5.20;;
51216;SDS011;37283;49.760;8.648;2022-07-23T12:17:55;6.38;;;5.20;;
51216;SDS011;37283;49.760;8.648;2022-07-23T12:20:23;5.55;;;5.00;;
51216;SDS011;37283;49.760;8.648;2022-07-23T12:25:28;7.45;;;5.22;;
51216;SDS011;37283;49.760;8.648;2022-07-23T12:30:37;5.70;;;5.13;;
51216;SDS011;37283;49.760;8.648;2022-07-23T12:33:12;5.90;;;5.30;;
51216;SDS011;37283;49.760;8.648;2022-07-23T12:35:44;5.85;;;4.82;;
51216;SDS011;37283;49.760;8.648;2022-07-23T12:38:13;6.47;;;5.35;;
51216;SDS011;37283;49.760;8.648;2022-07-23T12:40:42;6.65;;;5.30;;
51216;SDS011;37283;49.760;8.648;2022-07-23T12:43:21;5.43;;;4.93;;
51216;SDS011;37283;49.760;8.648;2022-07-23T12:45:54;8.30;;;5.40;;
51216;SDS011;37283;49.760;8.648;2022-07-23T12:48:26;7.70;;;5.65;;
51216;SDS011;37283;49.760;8.648;2022-07-23T12:53:32;8.77;;;5.32;;
51216;SDS011;37283;49.760;8.648;2022-07-23T12:56:04;7.38;;;4.95;;
51216;SDS011;37283;49.760;8.648;2022-07-23T12:58:48;5.97;;;5.28;;
51216;SDS011;37283;49.760;8.648;2022-07-23T13:03:56;6.55;;;4.95;;
51216;SDS011;37283;49.760;8.648;2022-07-23T13:06:29;7.45;;;5.35;;
51216;SDS011;37283;49.760;8.648;2022-07-23T13:08:56;5.53;;;4.97;;
51216;SDS011;37283;49.760;8.648;2022-07-23T13:11:23;7.18;;;5.00;;
51216;SDS011;37283;49.760;8.648;2022-07-23T13:13:50;8.68;;;5.07;;
51216;SDS011;37283;49.760;8.648;2022-07-23T13:16:16;8.05;;;5.43;;
51216;SDS011;37283;49.760;8.648;2022-07-23T13:18:43;8.50;;;5.60;;
51216;SDS011;37283;49.760;8.648;2022-07-23T13:21:09;6.00;;;5.40;;
51216;SDS011;37283;49.760;8.648;2022-07-23T13:23:36;6.15;;;4.65;;
51216;SDS011;37283;49.760;8.648;2022-07-23T13:26:03;8.07;;;4.90;;
51216;SDS011;37283;49.760;8.648;2022-07-23T13:28:30;7.85;;;5.10;;
51216;SDS011;37283;49.760;8.648;2022-07-23T13:30:56;5.88;;;4.85;;
51216;SDS011;37283;49.760;8.648;2022-07-23T13:33:24;5.28;;;4.78;;
51216;SDS011;37283;49.760;8.648;2022-07-23T13:35:53;5.68;;;4.82;;
51216;SDS011;37283;49.760;8.648;2022-07-23T13:38:21;6.88;;;5.35;;
51216;SDS011;37283;49.760;8.648;2022-07-23T13:40:49;6.88;;;5.20;;
51216;SDS011;37283;49.760;8.648;2022-07-23T13:43:17;5.93;;;5.20;;
51216;SDS011;37283;49.760;8.648;2022-07-23T13:45:48;6.45;;;5.28;;
51216;SDS011;37283;49.760;8.648;2022-07-23T13:48:15;7.43;;;5.53;;
51216;SDS011;37283;49.760;8.648;2022-07-23T13:50:42;6.65;;;4.80;;
51216;SDS011;37283;49.760;8.648;2022-07-23T13:53:12;6.38;;;5.15;;
51216;SDS011;37283;49.760;8.648;2022-07-23T13:55:43;7.38;;;5.43;;
51216;SDS011;37283;49.760;8.648;2022-07-23T13:58:14;5.68;;;4.95;;
51216;SDS011;37283;49.760;8.648;2022-07-23T14:00:42;5.15;;;4.65;;
51216;SDS011;37283;49.760;8.648;2022-07-23T14:03:18;5.57;;;5.07;;
51216;SDS011;37283;49.760;8.648;2022-07-23T14:05:47;5.15;;;4.65;;
51216;SDS011;37283;49.760;8.648;2022-07-23T14:08:14;8.07;;;5.13;;
51216;SDS011;37283;49.760;8.648;2022-07-23T14:10:41;6.00;;;4.45;;
51216;SDS011;37283;49.760;8.648;2022-07-23T14:13:08;5.85;;;4.85;;
51216;SDS011;37283;49.760;8.648;2022-07-23T14:15:35;8.13;;;4.60;;
51216;SDS011;37283;49.760;8.648;2022-07-23T14:18:03;6.25;;;4.53;;
51216;SDS011;37283;49.760;8.648;2022-07-23T14:20:30;4.85;;;4.25;;
51216;SDS011;37283;49.760;8.648;2022-07-23T14:22:57;5.00;;;4.53;;
51216;SDS011;37283;49.760;8.648;2022-07-23T14:25:29;4.90;;;4.40;;
51216;SDS011;37283;49.760;8.648;2022-07-23T14:27:56;8.73;;;4.55;;
51216;SDS011;37283;49.760;8.648;2022-07-23T14:30:22;6.78;;;4.38;;
51216;SDS011;37283;49.760;8.648;2022-07-23T14:32:59;4.53;;;4.13;;
51216;SDS011;37283;49.760;8.648;2022-07-23T14:35:26;7.40;;;4.60;;
51216;SDS011;37283;49.760;8.648;2022-07-23T14:37:52;4.47;;;4.07;;
51216;SDS011;37283;49.760;8.648;2022-07-23T14:40:20;5.50;;;4.35;;
51216;SDS011;37283;49.760;8.648;2022-07-23T14:42:48;7.18;;;4.40;;
51216;SDS011;37283;49.760;8.648;2022-07-23T14:45:15;6.43;;;4.35;;
51216;SDS011;37283;49.760;8.648;2022-07-23T14:47:41;4.95;;;4.43;;
51216;SDS011;37283;49.760;8.648;2022-07-23T14:50:12;5.00;;;4.30;;
51216;SDS011;37283;49.760;8.648;2022-07-23T14:52:39;4.65;;;3.95;;
51216;SDS011;37283;49.760;8.648;2022-07-23T14:55:05;5.60;;;4.10;;
51216;SDS011;37283;49.760;8.648;2022-07-23T14:57:32;5.18;;;4.38;;
51216;SDS011;37283;49.760;8.648;2022-07-23T14:59:59;4.80;;;4.18;;
51216;SDS011;37283;49.760;8.648;2022-07-23T15:02:26;7.53;;;4.28;;
51216;SDS011;37283;49.760;8.648;2022-07-23T15:04:53;5.53;;;4.90;;
51216;SDS011;37283;49.760;8.648;2022-07-23T15:07:19;7.75;;;4.13;;
51216;SDS011;37283;49.760;8.648;2022-07-23T15:09:46;7.22;;;4.18;;
51216;SDS011;37283;49.760;8.648;2022-07-23T15:12:13;6.90;;;5.70;;
51216;SDS011;37283;49.760;8.648;2022-07-23T15:14:40;7.38;;;6.57;;
51216;SDS011;37283;49.760;8.648;2022-07-23T15:17:06;5.97;;;4.82;;
51216;SDS011;37283;49.760;8.648;2022-07-23T15:19:33;4.97;;;4.40;;
51216;SDS011;37283;49.760;8.648;2022-07-23T15:21:59;4.50;;;4.10;;
51216;SDS011;37283;49.760;8.648;2022-07-23T15:24:27;6.63;;;5.30;;
51216;SDS011;37283;49.760;8.648;2022-07-23T15:26:54;7.90;;;5.95;;
51216;SDS011;37283;49.760;8.648;2022-07-23T15:29:20;6.55;;;4.15;;
51216;SDS011;37283;49.760;8.648;2022-07-23T15:31:47;4.13;;;3.70;;
51216;SDS011;37283;49.760;8.648;2022-07-23T15:34:22;4.88;;;3.65;;
51216;SDS011;37283;49.760;8.648;2022-07-23T15:36:49;4.95;;;4.28;;
51216;SDS011;37283;49.760;8.648;2022-07-23T15:39:18;5.80;;;3.90;;
51216;SDS011;37283;49.760;8.648;2022-07-23T15:41:44;5.57;;;4.38;;
51216;SDS011;37283;49.760;8.648;2022-07-23T15:44:14;6.10;;;4.20;;
51216;SDS011;37283;49.760;8.648;2022-07-23T15:46:55;6.25;;;3.80;;
51216;SDS011;37283;49.760;8.648;2022-07-23T15:49:24;6.45;;;4.22;;
51216;SDS011;37283;49.760;8.648;2022-07-23T15:51:51;4.63;;;4.13;;
51216;SDS011;37283;49.760;8.648;2022-07-23T15:54:17;6.10;;;4.10;;
51216;SDS011;37283;49.760;8.648;2022-07-23T15:56:44;4.47;;;3.90;;
51216;SDS011;37283;49.760;8.648;2022-07-23T15:59:10;4.55;;;4.10;;
51216;SDS011;37283;49.760;8.648;2022-07-23T16:01:37;4.57;;;3.83;;
51216;SDS011;37283;49.760;8.648;2022-07-23T16:04:04;7.03;;;4.13;;
51216;SDS011;37283;49.760;8.648;2022-07-23T16:06:34;6.35;;;4.30;;
51216;SDS011;37283;49.760;8.648;2022-07-23T16:09:02;5.22;;;4.10;;
51216;SDS011;37283;49.760;8.648;2022-07-23T16:11:31;5.18;;;4.07;;
51216;SDS011;37283;49.760;8.648;2022-07-23T16:13:58;6.03;;;4.43;;
51216;SDS011;37283;49.760;8.648;2022-07-23T16:16:24;4.30;;;3.70;;
51216;SDS011;37283;49.760;8.648;2022-07-23T16:18:53;5.93;;;3.80;;
51216;SDS011;37283;49.760;8.648;2022-07-23T16:21:20;6.30;;;3.67;;
51216;SDS011;37283;49.760;8.648;2022-07-23T16:23:47;4.72;;;3.90;;
51216;SDS011;37283;49.760;8.648;2022-07-23T16:26:13;4.70;;;4.15;;
51216;SDS011;37283;49.760;8.648;2022-07-23T16:28:41;4.33;;;3.93;;
51216;SDS011;37283;49.760;8.648;2022-07-23T16:31:07;4.63;;;4.13;;
51216;SDS011;37283;49.760;8.648;2022-07-23T16:33:34;5.78;;;4.20;;
51216;SDS011;37283;49.760;8.648;2022-07-23T16:36:01;7.93;;;4.40;;
51216;SDS011;37283;49.760;8.648;2022-07-23T16:38:27;7.47;;;5.70;;
51216;SDS011;37283;49.760;8.648;2022-07-23T16:40:54;5.53;;;4.80;;
51216;SDS011;37283;49.760;8.648;2022-07-23T16:43:22;8.02;;;5.07;;
51216;SDS011;37283;49.760;8.648;2022-07-23T16:45:48;7.18;;;4.50;;
51216;SDS011;37283;49.760;8.648;2022-07-23T16:48:15;8.23;;;4.45;;
51216;SDS011;37283;49.760;8.648;2022-07-23T16:50:42;6.32;;;4.50;;
51216;SDS011;37283;49.760;8.648;2022-07-23T16:53:08;5.63;;;4.30;;
51216;SDS011;37283;49.760;8.648;2022-07-23T16:55:35;5.30;;;4.18;;
51216;SDS011;37283;49.760;8.648;2022-07-23T16:58:01;5.43;;;4.45;;
51216;SDS011;37283;49.760;8.648;2022-07-23T17:00:28;4.45;;;4.05;;
51216;SDS011;37283;49.760;8.648;2022-07-23T17:02:54;5.78;;;4.00;;
51216;SDS011;37283;49.760;8.648;2022-07-23T17:05:21;4.75;;;4.20;;
51216;SDS011;37283;49.760;8.648;2022-07-23T17:07:48;7.45;;;4.53;;
51216;SDS011;37283;49.760;8.648;2022-07-23T17:10:15;5.13;;;4.60;;
51216;SDS011;37283;49.760;8.648;2022-07-23T17:12:42;6.75;;;4.07;;
51216;SDS011;37283;49.760;8.648;2022-07-23T17:15:08;6.47;;;4.03;;
51216;SDS011;37283;49.760;8.648;2022-07-23T17:17:35;6.88;;;4.57;;
51216;SDS011;37283;49.760;8.648;2022-07-23T17:20:03;6.90;;;4.45;;
51216;SDS011;37283;49.760;8.648;2022-07-23T17:22:30;5.63;;;4.38;;
51216;SDS011;37283;49.760;8.648;2022-07-23T17:24:57;4.45;;;3.67;;
51216;SDS011;37283;49.760;8.648;2022-07-23T17:27:23;7.05;;;4.05;;
51216;SDS011;37283;49.760;8.648;2022-07-23T17:29:52;6.50;;;4.22;;
51216;SDS011;37283;49.760;8.648;2022-07-23T17:32:18;7.38;;;4.35;;
51216;SDS011;37283;49.760;8.648;2022-07-23T17:34:46;5.28;;;3.90;;
51216;SDS011;37283;49.760;8.648;2022-07-23T17:37:12;5.18;;;4.28;;
51216;SDS011;37283;49.760;8.648;2022-07-23T17:39:39;4.90;;;4.13;;
51216;SDS011;37283;49.760;8.648;2022-07-23T17:42:05;4.80;;;3.80;;
51216;SDS011;37283;49.760;8.648;2022-07-23T17:44:32;7.10;;;4.35;;
51216;SDS011;37283;49.760;8.648;2022-07-23T17:46:58;6.18;;;3.97;;
51216;SDS011;37283;49.760;8.648;2022-07-23T17:49:25;6.00;;;4.22;;
51216;SDS011;37283;49.760;8.648;2022-07-23T17:51:51;6.85;;;4.47;;
51216;SDS011;37283;49.760;8.648;2022-07-23T17:54:18;5.60;;;4.18;;
51216;SDS011;37283;49.760;8.648;2022-07-23T17:56:44;6.80;;;4.13;;
51216;SDS011;37283;49.760;8.648;2022-07-23T17:59:11;5.18;;;3.88;;
51216;SDS011;37283;49.760;8.648;2022-07-23T18:01:37;6.25;;;3.90;;
51216;SDS011;37283;49.760;8.648;2022-07-23T18:04:04;4.15;;;3.63;;
51216;SDS011;37283;49.760;8.648;2022-07-23T18:06:31;4.15;;;3.72;;
51216;SDS011;37283;49.760;8.648;2022-07-23T18:08:57;5.68;;;4.03;;
51216;SDS011;37283;49.760;8.648;2022-07-23T18:11:31;5.65;;;3.78;;
51216;SDS011;37283;49.760;8.648;2022-07-23T18:13:58;5.55;;;4.07;;
51216;SDS011;37283;49.760;8.648;2022-07-23T18:16:24;4.47;;;3.90;;
51216;SDS011;37283;49.760;8.648;2022-07-23T18:18:51;4.70;;;4.30;;
51216;SDS011;37283;49.760;8.648;2022-07-23T18:21:17;4.97;;;4.28;;
51216;SDS011;37283;49.760;8.648;2022-07-23T18:23:44;5.95;;;4.47;;
51216;SDS011;37283;49.760;8.648;2022-07-23T18:26:10;5.97;;;4.65;;
51216;SDS011;37283;49.760;8.648;2022-07-23T18:28:40;7.25;;;4.78;;
51216;SDS011;37283;49.760;8.648;2022-07-23T18:31:07;8.77;;;4.50;;
51216;SDS011;37283;49.760;8.648;2022-07-23T18:33:33;6.57;;;4.78;;
51216;SDS011;37283;49.760;8.648;2022-07-23T18:36:04;5.00;;;4.43;;
51216;SDS011;37283;49.760;8.648;2022-07-23T18:38:31;4.75;;;4.20;;
51216;SDS011;37283;49.760;8.648;2022-07-23T18:41:04;5.30;;;4.78;;
51216;SDS011;37283;49.760;8.648;2022-07-23T18:43:31;7.13;;;4.60;;
51216;SDS011;37283;49.760;8.648;2022-07-23T18:45:59;6.00;;;4.60;;
51216;SDS011;37283;49.760;8.648;2022-07-23T18:48:28;4.82;;;4.28;;
51216;SDS011;37283;49.760;8.648;2022-07-23T18:50:54;5.68;;;4.60;;
51216;SDS011;37283;49.760;8.648;2022-07-23T18:53:21;6.18;;;4.20;;
51216;SDS011;37283;49.760;8.648;2022-07-23T18:55:47;6.15;;;4.65;;
51216;SDS011;37283;49.760;8.648;2022-07-23T18:58:14;8.40;;;4.50;;
51216;SDS011;37283;49.760;8.648;2022-07-23T19:00:40;8.75;;;4.57;;
51216;SDS011;37283;49.760;8.648;2022-07-23T19:03:07;7.30;;;4.72;;
51216;SDS011;37283;49.760;8.648;2022-07-23T19:05:34;5.68;;;4.13;;
51216;SDS011;37283;49.760;8.648;2022-07-23T19:08:00;4.88;;;4.13;;
51216;SDS011;37283;49.760;8.648;2022-07-23T19:10:27;5.68;;;4.03;;
51216;SDS011;37283;49.760;8.648;2022-07-23T19:12:54;5.28;;;4.20;;
51216;SDS011;37283;49.760;8.648;2022-07-23T19:15:21;4.30;;;3.88;;
51216;SDS011;37283;49.760;8.648;2022-07-23T19:17:47;6.18;;;4.25;;
51216;SDS011;37283;49.760;8.648;2022-07-23T19:20:14;5.13;;;3.80;;
51216;SDS011;37283;49.760;8.648;2022-07-23T19:22:41;5.28;;;3.33;;
51216;SDS011;37283;49.760;8.648;2022-07-23T19:25:07;4.18;;;3.17;;
51216;SDS011;37283;49.760;8.648;2022-07-23T19:27:34;6.50;;;3.75;;
51216;SDS011;37283;49.760;8.648;2022-07-23T19:30:03;6.75;;;3.70;;
51216;SDS011;37283;49.760;8.648;2022-07-23T19:32:30;4.95;;;3.60;;
51216;SDS011;37283;49.760;8.648;2022-07-23T19:35:02;5.28;;;3.30;;
51216;SDS011;37283;49.760;8.648;2022-07-23T19:37:30;5.38;;;3.58;;
51216;SDS011;37283;49.760;8.648;2022-07-23T19:39:57;5.22;;;3.53;;
51216;SDS011;37283;49.760;8.648;2022-07-23T20:49:59;4.20;;;3.03;;
51216;SDS011;37283;49.760;8.648;2022-07-23T20:58:56;4.13;;;3.22;;
51216;SDS011;37283;49.760;8.648;2022-07-23T21:03:29;6.07;;;2.92;;
51216;SDS011;37283;49.760;8.648;2022-07-23T21:07:12;3.50;;;3.10;;
51216;SDS011;37283;49.760;8.648;2022-07-23T21:09:55;4.75;;;3.08;;